Time;durP1;ratioP1;P1;durP2;ratioP2;P2;SDS_P1;SDS_P2;PMS_P1;PMS_P2;Temp;Humidity;BMP_temperature;BMP_pressure;BME280_temperature;BME280_humidity;BME280_pressure;Samples;Min_cycle;Max_cycle;Signal;HPM_P1;HPM_P2
2020/12/09 00:01:35;;;;;;;118.83;108.33;;;3.60;99.90;;;;;;4844357;29;20440;-85
2020/12/09 00:04:41;;;;;;;120.33;109.37;;;3.80;99.90;;;;;;4876600;29;21085;-85
2020/12/09 00:07:33;;;;;;;119.53;107.57;;;3.70;99.90;;;;;;4876960;29;20502;-85
2020/12/09 00:10:41;;;;;;;;;;;;;;;;;;;;;
2020/12/09 00:13:41;;;;;;;107.47;96.50;;;3.40;99.90;;;;;;4877898;29;20460;-85
2020/12/09 00:16:38;;;;;;;100.03;89.90;;;3.50;99.90;;;;;;4877302;29;20515;-85
2020/12/09 00:19:31;;;;;;;90.50;81.57;;;3.60;99.90;;;;;;4877737;29;20468;-85
2020/12/09 00:22:14;;;;;;;90.27;81.77;;;3.60;99.90;;;;;;4822647;29;20458;-85
2020/12/09 00:25:16;;;;;;;;;;;;;;;;;;;;;
2020/12/09 00:28:14;;;;;;;91.67;81.67;;;3.20;99.90;;;;;;4874200;29;20544;-84
2020/12/09 00:30:45;;;;;;;93.37;83.70;;;3.40;99.90;;;;;;4877686;29;20466;-85
2020/12/09 00:33:22;;;;;;;89.50;80.10;;;3.10;99.90;;;;;;4877706;29;20456;-84
2020/12/09 00:35:52;;;;;;;93.50;83.87;;;3.40;99.90;;;;;;4877567;29;20993;-84
2020/12/09 00:38:31;;;;;;;90.13;81.20;;;3.30;99.90;;;;;;4927333;28;20572;-84
2020/12/09 00:41:12;;;;;;;91.70;82.70;;;3.50;99.90;;;;;;4954483;28;20538;-84
2020/12/09 00:43:49;;;;;;;94.27;84.90;;;3.10;99.90;;;;;;4954965;28;20447;-85
2020/12/09 00:46:35;;;;;;;95.70;85.60;;;3.30;99.90;;;;;;4963403;28;20459;-84
2020/12/09 00:49:03;;;;;;;93.53;84.67;;;3.30;99.90;;;;;;4974519;28;20459;-85
2020/12/09 00:51:49;;;;;;;102.93;92.63;;;3.20;99.90;;;;;;4964148;28;20462;-85
2020/12/09 00:54:20;;;;;;;100.27;90.57;;;3.10;99.90;;;;;;4954096;28;20471;-85
2020/12/09 00:57:32;;;;;;;102.57;91.67;;;3.20;99.90;;;;;;4954832;28;20463;-83
2020/12/09 01:03:18;;;;;;;107.20;96.53;;;3.00;99.90;;;;;;4953866;28;20448;-84
2020/12/09 01:06:02;;;;;;;108.30;97.40;;;3.10;99.90;;;;;;4958181;28;20981;-84
2020/12/09 01:08:42;;;;;;;109.00;99.30;;;3.10;99.90;;;;;;4973914;28;20479;-85
2020/12/09 01:11:23;;;;;;;110.77;100.47;;;2.90;99.90;;;;;;4967113;28;20451;-85
2020/12/09 01:14:00;;;;;;;115.53;105.17;;;3.20;99.90;;;;;;4967307;28;20498;-85
2020/12/09 01:16:43;;;;;;;118.23;107.40;;;3.10;99.90;;;;;;4964507;28;20462;-84
2020/12/09 01:19:42;;;;;;;113.50;102.97;;;3.10;99.90;;;;;;4954875;28;20452;-85
2020/12/09 01:22:33;;;;;;;;;;;;;;;;;;;;;
2020/12/09 01:25:03;;;;;;;115.70;105.27;;;3.00;99.90;;;;;;4972376;28;20491;-84
2020/12/09 01:27:38;;;;;;;114.80;103.80;;;3.20;99.90;;;;;;4956169;28;20460;-85
2020/12/09 01:30:08;;;;;;;112.50;102.40;;;3.10;99.90;;;;;;4956926;28;20459;-84
2020/12/09 01:32:48;;;;;;;111.27;101.03;;;2.90;99.90;;;;;;4971981;28;20550;-84
2020/12/09 01:35:31;;;;;;;107.00;96.97;;;3.10;99.90;;;;;;4973820;28;20490;-84
2020/12/09 01:38:05;;;;;;;112.30;102.00;;;2.90;99.90;;;;;;4954413;28;20456;-85
2020/12/09 01:44:05;;;;;;;114.33;103.67;;;2.90;99.90;;;;;;4972309;28;20463;-84
2020/12/09 01:46:40;;;;;;;105.07;95.27;;;3.00;99.90;;;;;;4958378;28;20877;-84
2020/12/09 01:49:15;;;;;;;106.17;96.00;;;2.90;99.90;;;;;;4958517;28;20459;-84
2020/12/09 01:51:51;;;;;;;105.13;95.20;;;3.00;99.90;;;;;;4958566;28;20455;-84
2020/12/09 01:54:28;;;;;;;105.60;94.30;;;3.00;99.90;;;;;;4963480;28;20784;-84
2020/12/09 01:57:10;;;;;;;102.67;92.17;;;2.90;99.90;;;;;;4977570;28;20937;-85
2020/12/09 01:59:47;;;;;;;109.07;97.43;;;3.00;99.90;;;;;;4968658;28;20535;-84
2020/12/09 02:02:28;;;;;;;110.13;99.30;;;3.00;99.90;;;;;;4973254;28;20456;-85
2020/12/09 02:04:55;;;;;;;113.10;101.97;;;2.90;99.90;;;;;;4966633;28;20519;-84
2020/12/09 02:07:22;;;;;;;112.73;101.40;;;2.90;99.90;;;;;;4958121;28;20480;-84
2020/12/09 02:10:27;;;;;;;107.37;96.73;;;2.90;99.90;;;;;;4956778;28;20483;-84
2020/12/09 02:13:02;;;;;;;109.57;98.57;;;2.90;99.90;;;;;;4936526;28;20502;-85
2020/12/09 02:15:34;;;;;;;101.40;91.50;;;2.90;99.90;;;;;;4958165;28;20464;-84
2020/12/09 02:18:23;;;;;;;96.20;86.30;;;2.90;99.90;;;;;;4958660;28;20456;-84
2020/12/09 02:21:00;;;;;;;103.40;93.00;;;3.00;99.90;;;;;;4961437;28;20583;-85
2020/12/09 02:24:13;;;;;;;100.50;89.83;;;2.90;99.90;;;;;;4976841;28;20954;-84
2020/12/09 02:27:02;;;;;;;94.00;84.70;;;2.90;99.90;;;;;;4976180;28;20463;-85
2020/12/09 02:29:43;;;;;;;95.83;86.00;;;2.90;99.90;;;;;;4976609;28;20462;-85
2020/12/09 02:32:17;;;;;;;93.70;84.00;;;2.90;99.90;;;;;;4975178;28;20455;-84
2020/12/09 02:35:08;;;;;;;;;;;;;;;;;;;;;
2020/12/09 02:37:42;;;;;;;105.90;95.47;;;2.80;99.90;;;;;;4956707;28;20982;-85
2020/12/09 02:40:48;;;;;;;;;;;;;;;;;;;;;
2020/12/09 02:43:35;;;;;;;;;;;;;;;;;;;;;
2020/12/09 02:46:07;;;;;;;106.77;96.70;;;3.10;99.90;;;;;;4969922;28;20480;-85
2020/12/09 02:48:40;;;;;;;108.70;97.97;;;2.70;99.90;;;;;;4957018;28;20979;-85
2020/12/09 02:51:14;;;;;;;110.67;99.33;;;2.70;99.90;;;;;;4957527;28;21015;-85
2020/12/09 02:53:44;;;;;;;111.67;100.77;;;2.60;99.90;;;;;;4955689;28;20572;-83
2020/12/09 02:56:18;;;;;;;114.83;103.43;;;2.40;99.90;;;;;;4957366;28;20864;-85
2020/12/09 02:58:57;;;;;;;119.30;108.13;;;2.50;99.90;;;;;;4957011;28;20455;-85
2020/12/09 03:01:30;;;;;;;124.03;112.33;;;2.30;99.90;;;;;;4957358;28;20483;-85
2020/12/09 03:06:45;;;;;;;136.73;124.60;;;2.40;99.90;;;;;;4956901;28;20571;-85
2020/12/09 03:09:36;;;;;;;143.33;129.93;;;2.40;99.90;;;;;;4955643;28;20483;-85
2020/12/09 03:12:17;;;;;;;142.30;130.53;;;2.20;99.90;;;;;;4957070;28;20486;-85
2020/12/09 03:14:46;;;;;;;145.67;131.97;;;2.30;99.90;;;;;;4956591;28;20555;-85
2020/12/09 03:17:13;;;;;;;151.40;138.10;;;2.20;99.90;;;;;;4956715;28;20519;-85
2020/12/09 03:19:39;;;;;;;154.67;141.30;;;2.30;99.90;;;;;;4956917;28;20464;-83
2020/12/09 03:22:06;;;;;;;153.83;140.23;;;2.10;99.90;;;;;;4958063;28;20456;-85
2020/12/09 03:24:35;;;;;;;158.17;144.80;;;2.30;99.90;;;;;;4955415;28;21026;-86
2020/12/09 03:27:03;;;;;;;154.57;141.53;;;2.20;99.90;;;;;;4971260;28;20526;-86
2020/12/09 03:29:35;;;;;;;152.47;139.87;;;2.10;99.90;;;;;;4975761;28;20526;-85
2020/12/09 03:32:16;;;;;;;154.50;140.83;;;2.30;99.90;;;;;;4960038;28;20947;-85
2020/12/09 03:34:52;;;;;;;159.73;145.90;;;2.00;99.90;;;;;;4954643;28;20455;-85
2020/12/09 03:37:31;;;;;;;154.60;140.47;;;1.90;99.90;;;;;;4956728;28;20463;-84
2020/12/09 03:40:04;;;;;;;155.87;141.27;;;1.90;99.90;;;;;;4955473;28;20494;-85
2020/12/09 03:42:34;;;;;;;166.80;151.13;;;1.90;99.90;;;;;;4975236;28;20538;-83
2020/12/09 03:45:09;;;;;;;168.98;151.55;;;1.80;99.90;;;;;;4965900;28;20479;-84
2020/12/09 03:47:43;;;;;;;177.30;160.57;;;1.60;99.90;;;;;;4956121;28;20214;-85
2020/12/09 03:50:17;;;;;;;187.13;167.10;;;1.50;99.90;;;;;;4959198;28;20490;-84
2020/12/09 03:52:51;;;;;;;204.90;173.27;;;1.60;99.90;;;;;;4975112;28;20462;-83
2020/12/09 03:55:34;;;;;;;205.13;184.23;;;1.50;99.90;;;;;;4973613;28;20462;-84
2020/12/09 03:58:10;;;;;;;218.23;195.17;;;1.40;99.90;;;;;;4973155;28;20463;-84
2020/12/09 04:00:40;;;;;;;237.23;203.20;;;1.40;99.90;;;;;;4968942;28;20463;-84
2020/12/09 04:03:14;;;;;;;229.23;205.90;;;1.50;99.90;;;;;;4955702;28;20464;-85
2020/12/09 04:05:55;;;;;;;;;;;;;;;;;;;;;
2020/12/09 04:08:28;;;;;;;244.10;213.97;;;1.20;99.90;;;;;;4955303;28;20566;-84
2020/12/09 04:10:59;;;;;;;287.73;231.00;;;1.40;99.90;;;;;;4954921;28;20890;-85
2020/12/09 04:13:26;;;;;;;240.87;218.90;;;1.30;99.90;;;;;;4955734;28;20452;-83
2020/12/09 04:15:58;;;;;;;249.30;222.70;;;1.30;99.90;;;;;;4967588;28;20946;-85
2020/12/09 04:18:32;;;;;;;257.77;230.50;;;1.20;99.90;;;;;;4974736;28;20510;-82
2020/12/09 04:21:17;;;;;;;253.60;227.20;;;1.30;99.90;;;;;;4961238;28;20461;-85
2020/12/09 04:24:05;;;;;;;277.03;232.03;;;1.30;99.90;;;;;;4962763;28;20487;-85
2020/12/09 04:26:38;;;;;;;246.87;222.60;;;1.10;99.90;;;;;;4979035;28;20474;-83
2020/12/09 04:29:25;;;;;;;238.60;214.70;;;1.20;99.90;;;;;;4974721;28;20542;-84
2020/12/09 04:32:20;;;;;;;256.37;230.00;;;1.10;99.90;;;;;;4979168;28;20461;-84
2020/12/09 04:34:47;;;;;;;251.60;225.77;;;1.20;99.90;;;;;;4978967;28;20990;-84
2020/12/09 04:37:15;;;;;;;255.10;230.03;;;1.20;99.90;;;;;;4956805;28;20535;-84
2020/12/09 04:39:42;;;;;;;258.23;231.30;;;1.20;99.90;;;;;;4955232;28;20536;-84
2020/12/09 04:42:09;;;;;;;260.03;235.73;;;1.20;99.90;;;;;;4955141;28;20470;-84
2020/12/09 04:44:52;;;;;;;270.30;244.73;;;1.20;99.90;;;;;;4959367;28;20479;-85
2020/12/09 04:47:26;;;;;;;261.80;236.23;;;1.40;99.90;;;;;;4954408;28;20467;-85
2020/12/09 04:50:11;;;;;;;255.38;228.80;;;1.40;99.90;;;;;;4973279;28;20513;-84
2020/12/09 04:52:47;;;;;;;270.90;243.15;;;1.30;99.90;;;;;;4964686;28;20199;-86
2020/12/09 04:55:48;;;;;;;260.60;237.07;;;1.40;99.90;;;;;;4959409;28;20196;-84
2020/12/09 04:58:38;;;;;;;259.97;235.53;;;1.60;99.90;;;;;;4973783;28;20494;-84
2020/12/09 05:01:23;;;;;;;252.40;228.07;;;1.40;99.90;;;;;;4959542;28;20546;-84
2020/12/09 05:04:14;;;;;;;;;;;;;;;;;;;;;
2020/12/09 05:20:06;;;;;;;;;;;;;;;;;;;;;
2020/12/09 05:22:59;;;;;;;;;;;;;;;;;;;;;
2020/12/09 05:26:21;;;;;;;;;;;;;;;;;;;;;
2020/12/09 05:32:33;;;;;;;;;;;;;;;;;;;;;
2020/12/09 05:35:25;;;;;;;233.40;212.30;;;1.30;99.90;;;;;;4960321;28;20459;-84
2020/12/09 05:38:11;;;;;;;238.47;217.53;;;1.20;99.90;;;;;;4974368;28;20451;-84
2020/12/09 05:40:42;;;;;;;237.23;214.87;;;1.30;99.90;;;;;;4970833;28;20523;-85
2020/12/09 05:43:11;;;;;;;230.27;210.37;;;1.20;99.90;;;;;;4977674;28;20510;-82
2020/12/09 05:45:38;;;;;;;223.10;202.37;;;1.20;99.90;;;;;;4969268;28;20531;-85
2020/12/09 05:48:19;;;;;;;229.53;208.83;;;1.00;99.90;;;;;;4987456;28;20801;-84
2020/12/09 05:50:54;;;;;;;227.03;206.53;;;1.00;99.90;;;;;;4993575;28;20478;-83
2020/12/09 05:53:27;;;;;;;228.00;208.00;;;1.10;99.90;;;;;;4977446;28;20486;-83
2020/12/09 05:56:09;;;;;;;232.93;211.90;;;1.20;99.90;;;;;;4975733;28;20447;-83
2020/12/09 05:58:42;;;;;;;235.33;214.43;;;1.20;99.90;;;;;;4958154;28;21006;-85
2020/12/09 06:01:11;;;;;;;232.57;212.53;;;1.30;99.90;;;;;;4960121;28;20451;-85
2020/12/09 06:03:52;;;;;;;242.27;221.03;;;1.30;99.90;;;;;;4958289;28;20547;-84
2020/12/09 06:06:25;;;;;;;238.13;215.83;;;1.40;99.90;;;;;;4957745;28;21011;-84
2020/12/09 06:08:58;;;;;;;241.13;219.77;;;1.30;99.90;;;;;;4957968;28;20487;-84
2020/12/09 06:11:26;;;;;;;244.50;223.30;;;1.40;99.90;;;;;;4976770;28;20455;-84
2020/12/09 06:14:16;;;;;;;244.57;221.20;;;1.60;99.90;;;;;;4976954;28;20510;-84
2020/12/09 06:16:43;;;;;;;242.40;221.20;;;1.50;99.90;;;;;;4974493;28;20518;-83
2020/12/09 06:19:09;;;;;;;236.70;215.33;;;1.70;99.90;;;;;;4957697;28;20466;-85
2020/12/09 06:21:37;;;;;;;243.03;220.83;;;1.50;99.90;;;;;;4957811;28;20542;-85
2020/12/09 06:24:03;;;;;;;236.20;216.70;;;1.80;99.90;;;;;;4956372;28;20455;-85
2020/12/09 06:26:30;;;;;;;235.53;215.30;;;1.80;99.90;;;;;;4958442;28;20494;-85
2020/12/09 06:29:00;;;;;;;229.47;209.93;;;1.60;99.90;;;;;;4957307;28;20456;-85
2020/12/09 06:31:26;;;;;;;224.33;204.70;;;1.70;99.90;;;;;;4957557;28;20456;-85
2020/12/09 06:33:54;;;;;;;220.73;201.63;;;1.60;99.90;;;;;;4976603;28;20555;-85
2020/12/09 06:36:25;;;;;;;224.47;204.50;;;1.60;99.90;;;;;;4976869;28;20538;-84
2020/12/09 06:39:16;;;;;;;217.75;198.57;;;1.60;99.90;;;;;;4975481;28;20466;-88
2020/12/09 06:42:09;;;;;;;217.10;197.90;;;1.60;99.90;;;;;;4957117;28;20209;-85
2020/12/09 06:45:27;;;;;;;214.23;197.00;;;1.60;99.90;;;;;;4960490;28;20878;-86
2020/12/09 06:48:22;;;;;;;211.63;193.10;;;1.40;99.90;;;;;;4973066;28;20550;-87
2020/12/09 06:50:56;;;;;;;214.97;196.87;;;1.50;99.90;;;;;;4957120;28;20459;-87
2020/12/09 06:53:48;;;;;;;205.33;187.83;;;1.30;99.90;;;;;;4958227;28;20470;-87
2020/12/09 06:57:25;;;;;;;;;;;;;;;;;;;;;
2020/12/09 07:00:15;;;;;;;206.30;187.97;;;1.20;99.90;;;;;;4971402;28;20478;-85
2020/12/09 07:07:09;;;;;;;;;;;;;;;;;;;;;
2020/12/09 07:16:33;;;;;;;194.40;177.68;;;0.90;99.90;;;;;;4821654;29;20476;-85
2020/12/09 07:19:01;;;;;;;203.63;185.93;;;0.40;99.90;;;;;;4879227;28;20609;-85
2020/12/09 07:25:24;;;;;;;;;;;;;;;;;;;;;
2020/12/09 07:47:39;;;;;;;227.88;208.18;;;0.00;99.90;;;;;;4697459;30;20217;-85
2020/12/09 07:51:06;;;;;;;;;;;;;;;;;;;;;
2020/12/09 07:54:14;;;;;;;;;;;;;;;;;;;;;
2020/12/09 08:04:11;;;;;;;;;;;;;;;;;;;;;
2020/12/09 08:06:55;;;;;;;;;;;;;;;;;;;;;
2020/12/09 12:00:03;;;;;;;59.60;37.47;;;5.90;53.20;;;;;;4934250;29;20466;-86
2020/12/09 13:24:48;;;;;;;60.00;33.03;;;5.00;53.30;;;;;;4949347;23;20498;-80
